sensor_id;sensor_type;location;lat;lon;timestamp;P1;durP1;ratioP1;P2;durP2;ratioP2
65597;SDS011;52267;51.984;20.956;2023-07-09T00:01:18;15.10;;;12.00;;
65597;SDS011;52267;51.984;20.956;2023-07-09T00:03:46;15.20;;;11.30;;
65597;SDS011;52267;51.984;20.956;2023-07-09T00:06:18;15.70;;;10.30;;
65597;SDS011;52267;51.984;20.956;2023-07-09T00:08:46;16.30;;;13.10;;
65597;SDS011;52267;51.984;20.956;2023-07-09T00:11:16;17.90;;;13.40;;
65597;SDS011;52267;51.984;20.956;2023-07-09T00:13:43;16.00;;;12.10;;
65597;SDS011;52267;51.984;20.956;2023-07-09T00:16:13;15.00;;;12.60;;
65597;SDS011;52267;51.984;20.956;2023-07-09T00:18:41;14.50;;;12.10;;
65597;SDS011;52267;51.984;20.956;2023-07-09T00:21:09;18.50;;;13.10;;
65597;SDS011;52267;51.984;20.956;2023-07-09T00:23:36;15.00;;;13.10;;
65597;SDS011;52267;51.984;20.956;2023-07-09T00:26:10;15.30;;;13.10;;
65597;SDS011;52267;51.984;20.956;2023-07-09T00:28:40;15.70;;;13.00;;
65597;SDS011;52267;51.984;20.956;2023-07-09T00:31:12;17.10;;;12.80;;
65597;SDS011;52267;51.984;20.956;2023-07-09T00:33:42;17.70;;;12.90;;
65597;SDS011;52267;51.984;20.956;2023-07-09T00:36:26;14.80;;;12.80;;
65597;SDS011;52267;51.984;20.956;2023-07-09T00:38:55;15.30;;;11.60;;
65597;SDS011;52267;51.984;20.956;2023-07-09T00:41:26;18.00;;;13.60;;
65597;SDS011;52267;51.984;20.956;2023-07-09T00:43:54;16.10;;;12.20;;
65597;SDS011;52267;51.984;20.956;2023-07-09T00:49:00;15.40;;;12.70;;
65597;SDS011;52267;51.984;20.956;2023-07-09T00:51:33;17.10;;;12.70;;
65597;SDS011;52267;51.984;20.956;2023-07-09T00:54:13;17.40;;;13.00;;
65597;SDS011;52267;51.984;20.956;2023-07-09T00:57:01;14.60;;;11.90;;
65597;SDS011;52267;51.984;20.956;2023-07-09T00:59:32;15.80;;;12.70;;
65597;SDS011;52267;51.984;20.956;2023-07-09T01:02:00;13.30;;;11.10;;
65597;SDS011;52267;51.984;20.956;2023-07-09T01:04:28;13.50;;;11.10;;
65597;SDS011;52267;51.984;20.956;2023-07-09T01:06:56;13.60;;;11.00;;
65597;SDS011;52267;51.984;20.956;2023-07-09T01:09:24;13.70;;;10.80;;
65597;SDS011;52267;51.984;20.956;2023-07-09T01:11:53;14.80;;;11.10;;
65597;SDS011;52267;51.984;20.956;2023-07-09T01:14:24;13.90;;;10.40;;
65597;SDS011;52267;51.984;20.956;2023-07-09T01:16:57;12.90;;;10.80;;
65597;SDS011;52267;51.984;20.956;2023-07-09T01:19:30;13.60;;;11.40;;
65597;SDS011;52267;51.984;20.956;2023-07-09T01:22:07;13.20;;;11.10;;
65597;SDS011;52267;51.984;20.956;2023-07-09T01:24:56;12.90;;;10.40;;
65597;SDS011;52267;51.984;20.956;2023-07-09T01:27:38;14.30;;;11.30;;
65597;SDS011;52267;51.984;20.956;2023-07-09T01:30:10;15.70;;;12.40;;
65597;SDS011;52267;51.984;20.956;2023-07-09T01:32:41;12.50;;;11.00;;
65597;SDS011;52267;51.984;20.956;2023-07-09T01:35:14;15.90;;;10.80;;
65597;SDS011;52267;51.984;20.956;2023-07-09T01:37:42;12.70;;;10.60;;
65597;SDS011;52267;51.984;20.956;2023-07-09T01:40:12;13.60;;;11.20;;
65597;SDS011;52267;51.984;20.956;2023-07-09T01:42:41;13.80;;;10.80;;
65597;SDS011;52267;51.984;20.956;2023-07-09T01:45:10;14.50;;;11.10;;
65597;SDS011;52267;51.984;20.956;2023-07-09T01:47:38;14.80;;;11.40;;
65597;SDS011;52267;51.984;20.956;2023-07-09T01:50:06;14.20;;;11.90;;
65597;SDS011;52267;51.984;20.956;2023-07-09T01:52:34;14.80;;;11.40;;
65597;SDS011;52267;51.984;20.956;2023-07-09T01:55:01;13.80;;;11.20;;
65597;SDS011;52267;51.984;20.956;2023-07-09T01:57:30;13.00;;;11.20;;
65597;SDS011;52267;51.984;20.956;2023-07-09T02:00:06;15.60;;;11.50;;
65597;SDS011;52267;51.984;20.956;2023-07-09T02:02:37;13.90;;;11.10;;
65597;SDS011;52267;51.984;20.956;2023-07-09T02:05:19;15.60;;;11.90;;
65597;SDS011;52267;51.984;20.956;2023-07-09T02:07:47;12.40;;;11.10;;
65597;SDS011;52267;51.984;20.956;2023-07-09T02:10:16;13.70;;;11.00;;
65597;SDS011;52267;51.984;20.956;2023-07-09T02:12:44;13.60;;;11.40;;
65597;SDS011;52267;51.984;20.956;2023-07-09T02:15:13;11.80;;;10.60;;
65597;SDS011;52267;51.984;20.956;2023-07-09T02:17:40;12.40;;;10.80;;
65597;SDS011;52267;51.984;20.956;2023-07-09T02:20:09;12.70;;;11.00;;
65597;SDS011;52267;51.984;20.956;2023-07-09T02:22:38;12.50;;;10.40;;
65597;SDS011;52267;51.984;20.956;2023-07-09T02:25:06;12.00;;;10.70;;
65597;SDS011;52267;51.984;20.956;2023-07-09T02:27:35;13.40;;;11.10;;
65597;SDS011;52267;51.984;20.956;2023-07-09T02:30:05;13.80;;;10.70;;
65597;SDS011;52267;51.984;20.956;2023-07-09T02:32:33;12.90;;;10.10;;
65597;SDS011;52267;51.984;20.956;2023-07-09T02:35:00;13.30;;;11.10;;
65597;SDS011;52267;51.984;20.956;2023-07-09T02:37:27;13.30;;;10.80;;
65597;SDS011;52267;51.984;20.956;2023-07-09T02:39:55;12.30;;;10.10;;
65597;SDS011;52267;51.984;20.956;2023-07-09T02:42:22;11.90;;;9.90;;
65597;SDS011;52267;51.984;20.956;2023-07-09T02:44:50;12.60;;;9.90;;
65597;SDS011;52267;51.984;20.956;2023-07-09T02:47:18;12.80;;;10.50;;
65597;SDS011;52267;51.984;20.956;2023-07-09T02:49:46;11.80;;;10.60;;
65597;SDS011;52267;51.984;20.956;2023-07-09T02:52:13;12.40;;;9.60;;
65597;SDS011;52267;51.984;20.956;2023-07-09T02:54:40;11.70;;;8.90;;
65597;SDS011;52267;51.984;20.956;2023-07-09T02:57:08;11.30;;;9.70;;
65597;SDS011;52267;51.984;20.956;2023-07-09T02:59:35;10.60;;;9.10;;
65597;SDS011;52267;51.984;20.956;2023-07-09T03:02:02;12.20;;;10.40;;
65597;SDS011;52267;51.984;20.956;2023-07-09T03:04:30;12.30;;;9.20;;
65597;SDS011;52267;51.984;20.956;2023-07-09T03:07:00;12.30;;;9.60;;
65597;SDS011;52267;51.984;20.956;2023-07-09T03:09:27;11.50;;;9.30;;
65597;SDS011;52267;51.984;20.956;2023-07-09T03:11:55;10.20;;;9.00;;
65597;SDS011;52267;51.984;20.956;2023-07-09T03:14:22;11.60;;;9.20;;
65597;SDS011;52267;51.984;20.956;2023-07-09T03:16:49;12.40;;;9.50;;
65597;SDS011;52267;51.984;20.956;2023-07-09T03:19:17;12.50;;;8.60;;
65597;SDS011;52267;51.984;20.956;2023-07-09T03:21:44;11.10;;;8.80;;
65597;SDS011;52267;51.984;20.956;2023-07-09T03:24:11;10.50;;;8.80;;
65597;SDS011;52267;51.984;20.956;2023-07-09T03:26:45;10.50;;;9.40;;
65597;SDS011;52267;51.984;20.956;2023-07-09T03:29:13;13.20;;;9.20;;
65597;SDS011;52267;51.984;20.956;2023-07-09T03:31:40;10.60;;;9.00;;
65597;SDS011;52267;51.984;20.956;2023-07-09T03:34:07;11.90;;;8.60;;
65597;SDS011;52267;51.984;20.956;2023-07-09T03:36:34;10.70;;;8.90;;
65597;SDS011;52267;51.984;20.956;2023-07-09T03:39:04;10.60;;;7.70;;
65597;SDS011;52267;51.984;20.956;2023-07-09T03:41:32;10.90;;;8.60;;
65597;SDS011;52267;51.984;20.956;2023-07-09T03:44:00;10.70;;;8.40;;
65597;SDS011;52267;51.984;20.956;2023-07-09T03:46:27;11.60;;;9.10;;
65597;SDS011;52267;51.984;20.956;2023-07-09T03:48:55;10.20;;;8.00;;
65597;SDS011;52267;51.984;20.956;2023-07-09T03:51:22;9.20;;;8.00;;
65597;SDS011;52267;51.984;20.956;2023-07-09T03:53:49;12.30;;;7.90;;
65597;SDS011;52267;51.984;20.956;2023-07-09T03:56:16;9.60;;;8.30;;
65597;SDS011;52267;51.984;20.956;2023-07-09T03:58:43;8.10;;;7.00;;
65597;SDS011;52267;51.984;20.956;2023-07-09T04:01:10;11.60;;;7.60;;
65597;SDS011;52267;51.984;20.956;2023-07-09T04:03:37;11.30;;;7.10;;
65597;SDS011;52267;51.984;20.956;2023-07-09T04:06:04;8.40;;;6.90;;
65597;SDS011;52267;51.984;20.956;2023-07-09T04:08:31;8.80;;;6.80;;
65597;SDS011;52267;51.984;20.956;2023-07-09T04:10:59;9.20;;;7.90;;
65597;SDS011;52267;51.984;20.956;2023-07-09T04:13:27;8.30;;;6.90;;
65597;SDS011;52267;51.984;20.956;2023-07-09T04:15:56;8.00;;;6.50;;
65597;SDS011;52267;51.984;20.956;2023-07-09T04:18:23;9.00;;;6.40;;
65597;SDS011;52267;51.984;20.956;2023-07-09T04:20:51;8.80;;;6.50;;
65597;SDS011;52267;51.984;20.956;2023-07-09T04:23:19;8.00;;;6.20;;
65597;SDS011;52267;51.984;20.956;2023-07-09T04:25:46;8.80;;;6.10;;
65597;SDS011;52267;51.984;20.956;2023-07-09T04:28:14;13.20;;;8.80;;
65597;SDS011;52267;51.984;20.956;2023-07-09T04:30:49;11.20;;;8.40;;
65597;SDS011;52267;51.984;20.956;2023-07-09T04:33:18;9.40;;;6.90;;
65597;SDS011;52267;51.984;20.956;2023-07-09T04:35:47;11.60;;;8.40;;
65597;SDS011;52267;51.984;20.956;2023-07-09T04:38:15;17.70;;;13.00;;
65597;SDS011;52267;51.984;20.956;2023-07-09T04:40:43;35.90;;;25.80;;
65597;SDS011;52267;51.984;20.956;2023-07-09T04:43:10;40.60;;;28.80;;
65597;SDS011;52267;51.984;20.956;2023-07-09T04:45:37;33.10;;;21.30;;
65597;SDS011;52267;51.984;20.956;2023-07-09T04:48:04;26.40;;;15.90;;
65597;SDS011;52267;51.984;20.956;2023-07-09T04:50:32;24.10;;;18.50;;
65597;SDS011;52267;51.984;20.956;2023-07-09T04:53:00;26.90;;;19.10;;
65597;SDS011;52267;51.984;20.956;2023-07-09T04:55:27;25.20;;;15.90;;
65597;SDS011;52267;51.984;20.956;2023-07-09T04:57:54;22.00;;;17.00;;
65597;SDS011;52267;51.984;20.956;2023-07-09T05:00:22;32.00;;;22.30;;
65597;SDS011;52267;51.984;20.956;2023-07-09T05:02:49;13.80;;;10.90;;
65597;SDS011;52267;51.984;20.956;2023-07-09T05:05:16;13.80;;;9.80;;
65597;SDS011;52267;51.984;20.956;2023-07-09T05:07:44;11.50;;;7.70;;
65597;SDS011;52267;51.984;20.956;2023-07-09T05:10:11;10.50;;;8.40;;
65597;SDS011;52267;51.984;20.956;2023-07-09T05:12:48;10.70;;;6.50;;
65597;SDS011;52267;51.984;20.956;2023-07-09T05:15:20;11.30;;;8.20;;
65597;SDS011;52267;51.984;20.956;2023-07-09T05:17:48;10.90;;;6.60;;
65597;SDS011;52267;51.984;20.956;2023-07-09T05:20:15;27.40;;;18.60;;
65597;SDS011;52267;51.984;20.956;2023-07-09T05:22:42;16.60;;;10.90;;
65597;SDS011;52267;51.984;20.956;2023-07-09T05:25:10;19.60;;;11.90;;
65597;SDS011;52267;51.984;20.956;2023-07-09T05:27:37;20.40;;;13.30;;
65597;SDS011;52267;51.984;20.956;2023-07-09T05:30:05;11.70;;;8.20;;
65597;SDS011;52267;51.984;20.956;2023-07-09T05:32:33;14.10;;;10.10;;
65597;SDS011;52267;51.984;20.956;2023-07-09T05:35:00;16.10;;;10.30;;
65597;SDS011;52267;51.984;20.956;2023-07-09T05:37:27;18.00;;;11.50;;
65597;SDS011;52267;51.984;20.956;2023-07-09T05:39:55;11.90;;;8.00;;
65597;SDS011;52267;51.984;20.956;2023-07-09T05:42:22;32.00;;;16.60;;
65597;SDS011;52267;51.984;20.956;2023-07-09T05:44:50;19.90;;;11.60;;
65597;SDS011;52267;51.984;20.956;2023-07-09T05:47:18;21.30;;;12.00;;
65597;SDS011;52267;51.984;20.956;2023-07-09T05:49:45;14.00;;;8.00;;
65597;SDS011;52267;51.984;20.956;2023-07-09T05:52:20;22.00;;;10.10;;
65597;SDS011;52267;51.984;20.956;2023-07-09T05:54:49;25.00;;;13.00;;
65597;SDS011;52267;51.984;20.956;2023-07-09T05:57:17;12.10;;;6.80;;
65597;SDS011;52267;51.984;20.956;2023-07-09T05:59:44;7.80;;;4.70;;
65597;SDS011;52267;51.984;20.956;2023-07-09T06:02:12;15.00;;;8.30;;
65597;SDS011;52267;51.984;20.956;2023-07-09T06:04:40;14.20;;;7.70;;
65597;SDS011;52267;51.984;20.956;2023-07-09T06:07:09;8.80;;;5.60;;
65597;SDS011;52267;51.984;20.956;2023-07-09T06:09:36;17.00;;;10.50;;
65597;SDS011;52267;51.984;20.956;2023-07-09T06:12:04;39.50;;;24.40;;
65597;SDS011;52267;51.984;20.956;2023-07-09T06:14:32;16.00;;;11.10;;
65597;SDS011;52267;51.984;20.956;2023-07-09T06:17:00;11.20;;;7.00;;
65597;SDS011;52267;51.984;20.956;2023-07-09T06:19:27;8.30;;;4.70;;
65597;SDS011;52267;51.984;20.956;2023-07-09T06:21:55;5.70;;;3.80;;
65597;SDS011;52267;51.984;20.956;2023-07-09T06:24:23;6.50;;;3.80;;
65597;SDS011;52267;51.984;20.956;2023-07-09T06:26:50;5.20;;;4.00;;
65597;SDS011;52267;51.984;20.956;2023-07-09T06:29:17;5.20;;;3.90;;
65597;SDS011;52267;51.984;20.956;2023-07-09T06:31:44;7.40;;;4.70;;
65597;SDS011;52267;51.984;20.956;2023-07-09T06:34:11;9.70;;;6.70;;
65597;SDS011;52267;51.984;20.956;2023-07-09T06:36:38;11.40;;;6.50;;
65597;SDS011;52267;51.984;20.956;2023-07-09T06:39:05;7.00;;;4.70;;
65597;SDS011;52267;51.984;20.956;2023-07-09T06:41:32;7.40;;;4.30;;
65597;SDS011;52267;51.984;20.956;2023-07-09T06:44:06;4.80;;;3.20;;
65597;SDS011;52267;51.984;20.956;2023-07-09T06:46:34;4.90;;;3.20;;
65597;SDS011;52267;51.984;20.956;2023-07-09T06:49:03;5.40;;;3.20;;
65597;SDS011;52267;51.984;20.956;2023-07-09T06:51:32;5.10;;;3.60;;
65597;SDS011;52267;51.984;20.956;2023-07-09T06:53:59;4.90;;;3.20;;
65597;SDS011;52267;51.984;20.956;2023-07-09T06:56:26;4.60;;;2.80;;
65597;SDS011;52267;51.984;20.956;2023-07-09T06:58:54;4.60;;;3.30;;
65597;SDS011;52267;51.984;20.956;2023-07-09T07:01:21;5.90;;;2.90;;
65597;SDS011;52267;51.984;20.956;2023-07-09T07:03:48;4.50;;;2.90;;
65597;SDS011;52267;51.984;20.956;2023-07-09T07:06:15;6.30;;;2.80;;
65597;SDS011;52267;51.984;20.956;2023-07-09T07:08:43;5.80;;;3.00;;
65597;SDS011;52267;51.984;20.956;2023-07-09T07:11:10;5.70;;;2.80;;
65597;SDS011;52267;51.984;20.956;2023-07-09T07:13:39;5.40;;;3.00;;
65597;SDS011;52267;51.984;20.956;2023-07-09T07:16:09;4.40;;;2.90;;
65597;SDS011;52267;51.984;20.956;2023-07-09T07:18:37;4.50;;;2.70;;
65597;SDS011;52267;51.984;20.956;2023-07-09T07:21:05;5.00;;;2.90;;
65597;SDS011;52267;51.984;20.956;2023-07-09T07:23:33;4.70;;;2.90;;
65597;SDS011;52267;51.984;20.956;2023-07-09T07:26:00;4.30;;;2.70;;
65597;SDS011;52267;51.984;20.956;2023-07-09T07:28:27;3.90;;;2.70;;
65597;SDS011;52267;51.984;20.956;2023-07-09T07:30:59;6.30;;;2.70;;
65597;SDS011;52267;51.984;20.956;2023-07-09T07:33:27;4.60;;;2.60;;
65597;SDS011;52267;51.984;20.956;2023-07-09T07:35:54;4.30;;;2.80;;
65597;SDS011;52267;51.984;20.956;2023-07-09T07:38:21;5.60;;;2.90;;
65597;SDS011;52267;51.984;20.956;2023-07-09T07:40:48;4.10;;;2.80;;
65597;SDS011;52267;51.984;20.956;2023-07-09T07:43:15;3.80;;;2.80;;
65597;SDS011;52267;51.984;20.956;2023-07-09T07:45:43;3.80;;;2.70;;
65597;SDS011;52267;51.984;20.956;2023-07-09T07:48:10;5.30;;;2.90;;
65597;SDS011;52267;51.984;20.956;2023-07-09T07:50:37;4.30;;;2.50;;
65597;SDS011;52267;51.984;20.956;2023-07-09T07:53:04;5.00;;;2.90;;
65597;SDS011;52267;51.984;20.956;2023-07-09T07:55:31;4.10;;;2.80;;
65597;SDS011;52267;51.984;20.956;2023-07-09T07:57:58;4.90;;;2.90;;
65597;SDS011;52267;51.984;20.956;2023-07-09T08:00:30;5.50;;;2.50;;
65597;SDS011;52267;51.984;20.956;2023-07-09T08:02:57;5.40;;;2.70;;
65597;SDS011;52267;51.984;20.956;2023-07-09T08:05:24;4.80;;;2.60;;
65597;SDS011;52267;51.984;20.956;2023-07-09T08:07:51;5.70;;;3.00;;
65597;SDS011;52267;51.984;20.956;2023-07-09T08:10:18;3.80;;;2.50;;
65597;SDS011;52267;51.984;20.956;2023-07-09T08:12:46;4.40;;;2.50;;
65597;SDS011;52267;51.984;20.956;2023-07-09T08:15:13;6.00;;;2.90;;
65597;SDS011;52267;51.984;20.956;2023-07-09T08:17:40;4.60;;;2.70;;
65597;SDS011;52267;51.984;20.956;2023-07-09T08:20:07;5.80;;;3.00;;
65597;SDS011;52267;51.984;20.956;2023-07-09T08:22:35;16.00;;;3.40;;
65597;SDS011;52267;51.984;20.956;2023-07-09T08:25:02;4.50;;;2.90;;
65597;SDS011;52267;51.984;20.956;2023-07-09T08:27:29;5.40;;;2.90;;
65597;SDS011;52267;51.984;20.956;2023-07-09T08:29:56;4.50;;;2.60;;
65597;SDS011;52267;51.984;20.956;2023-07-09T08:32:23;4.40;;;2.60;;
65597;SDS011;52267;51.984;20.956;2023-07-09T08:34:50;4.50;;;2.70;;
65597;SDS011;52267;51.984;20.956;2023-07-09T08:37:17;4.90;;;3.00;;
65597;SDS011;52267;51.984;20.956;2023-07-09T08:39:44;4.30;;;2.70;;
65597;SDS011;52267;51.984;20.956;2023-07-09T08:42:16;3.90;;;2.80;;
65597;SDS011;52267;51.984;20.956;2023-07-09T08:48:15;4.90;;;3.00;;
65597;SDS011;52267;51.984;20.956;2023-07-09T08:50:50;5.00;;;2.90;;
65597;SDS011;52267;51.984;20.956;2023-07-09T08:53:28;4.20;;;2.70;;
65597;SDS011;52267;51.984;20.956;2023-07-09T08:56:00;8.00;;;2.60;;
65597;SDS011;52267;51.984;20.956;2023-07-09T08:58:31;5.80;;;2.80;;
65597;SDS011;52267;51.984;20.956;2023-07-09T09:01:06;4.40;;;2.50;;
65597;SDS011;52267;51.984;20.956;2023-07-09T09:03:54;4.20;;;2.40;;
65597;SDS011;52267;51.984;20.956;2023-07-09T09:06:35;3.70;;;2.40;;
65597;SDS011;52267;51.984;20.956;2023-07-09T09:09:12;4.50;;;2.50;;
65597;SDS011;52267;51.984;20.956;2023-07-09T09:11:48;4.20;;;2.30;;
65597;SDS011;52267;51.984;20.956;2023-07-09T09:14:38;4.20;;;2.30;;
65597;SDS011;52267;51.984;20.956;2023-07-09T09:17:16;4.80;;;2.60;;
65597;SDS011;52267;51.984;20.956;2023-07-09T09:19:48;4.50;;;2.80;;
65597;SDS011;52267;51.984;20.956;2023-07-09T09:22:27;3.70;;;2.10;;
65597;SDS011;52267;51.984;20.956;2023-07-09T09:25:29;3.10;;;2.00;;
65597;SDS011;52267;51.984;20.956;2023-07-09T09:28:00;3.80;;;2.10;;
65597;SDS011;52267;51.984;20.956;2023-07-09T09:30:28;4.10;;;2.20;;
65597;SDS011;52267;51.984;20.956;2023-07-09T09:33:02;3.90;;;1.50;;
65597;SDS011;52267;51.984;20.956;2023-07-09T09:35:38;2.70;;;1.50;;
65597;SDS011;52267;51.984;20.956;2023-07-09T09:38:22;4.80;;;2.00;;
65597;SDS011;52267;51.984;20.956;2023-07-09T09:40:49;3.80;;;1.80;;
65597;SDS011;52267;51.984;20.956;2023-07-09T09:43:19;3.00;;;1.50;;
65597;SDS011;52267;51.984;20.956;2023-07-09T09:45:49;3.90;;;1.20;;
65597;SDS011;52267;51.984;20.956;2023-07-09T09:48:27;2.70;;;1.30;;
65597;SDS011;52267;51.984;20.956;2023-07-09T09:50:58;2.40;;;1.20;;
65597;SDS011;52267;51.984;20.956;2023-07-09T09:53:29;2.60;;;1.20;;
65597;SDS011;52267;51.984;20.956;2023-07-09T09:56:04;1.60;;;1.00;;
65597;SDS011;52267;51.984;20.956;2023-07-09T09:58:32;4.80;;;1.50;;
65597;SDS011;52267;51.984;20.956;2023-07-09T10:01:02;2.90;;;1.30;;
65597;SDS011;52267;51.984;20.956;2023-07-09T10:03:34;3.00;;;1.70;;
65597;SDS011;52267;51.984;20.956;2023-07-09T10:06:16;2.90;;;1.30;;
65597;SDS011;52267;51.984;20.956;2023-07-09T10:08:50;2.50;;;1.30;;
65597;SDS011;52267;51.984;20.956;2023-07-09T10:11:44;2.90;;;1.20;;
65597;SDS011;52267;51.984;20.956;2023-07-09T10:17:17;2.80;;;1.20;;
65597;SDS011;52267;51.984;20.956;2023-07-09T10:25:53;2.60;;;1.40;;
65597;SDS011;52267;51.984;20.956;2023-07-09T10:34:32;2.00;;;1.10;;
65597;SDS011;52267;51.984;20.956;2023-07-09T10:40:02;2.90;;;1.30;;
65597;SDS011;52267;51.984;20.956;2023-07-09T10:42:40;2.60;;;1.20;;
65597;SDS011;52267;51.984;20.956;2023-07-09T10:45:14;3.20;;;1.30;;
65597;SDS011;52267;51.984;20.956;2023-07-09T10:47:45;2.30;;;1.10;;
65597;SDS011;52267;51.984;20.956;2023-07-09T10:50:33;3.90;;;1.50;;
65597;SDS011;52267;51.984;20.956;2023-07-09T10:53:26;3.80;;;1.30;;
65597;SDS011;52267;51.984;20.956;2023-07-09T10:56:01;2.30;;;1.30;;
65597;SDS011;52267;51.984;20.956;2023-07-09T11:01:39;2.70;;;1.00;;
65597;SDS011;52267;51.984;20.956;2023-07-09T11:07:07;2.60;;;1.00;;
65597;SDS011;52267;51.984;20.956;2023-07-09T11:09:44;3.10;;;1.20;;
65597;SDS011;52267;51.984;20.956;2023-07-09T11:12:17;2.80;;;1.40;;
65597;SDS011;52267;51.984;20.956;2023-07-09T11:14:58;2.60;;;1.40;;
65597;SDS011;52267;51.984;20.956;2023-07-09T11:17:30;3.50;;;1.40;;
65597;SDS011;52267;51.984;20.956;2023-07-09T11:20:07;2.70;;;1.90;;
65597;SDS011;52267;51.984;20.956;2023-07-09T11:22:37;2.30;;;1.00;;
65597;SDS011;52267;51.984;20.956;2023-07-09T11:25:13;3.10;;;1.20;;
65597;SDS011;52267;51.984;20.956;2023-07-09T11:30:25;3.00;;;1.10;;
65597;SDS011;52267;51.984;20.956;2023-07-09T11:33:03;2.30;;;1.00;;
65597;SDS011;52267;51.984;20.956;2023-07-09T11:35:48;2.00;;;1.10;;
65597;SDS011;52267;51.984;20.956;2023-07-09T11:38:23;4.40;;;1.40;;
65597;SDS011;52267;51.984;20.956;2023-07-09T11:40:54;3.00;;;1.60;;
65597;SDS011;52267;51.984;20.956;2023-07-09T11:43:33;2.10;;;1.10;;
65597;SDS011;52267;51.984;20.956;2023-07-09T11:46:13;2.60;;;1.50;;
65597;SDS011;52267;51.984;20.956;2023-07-09T11:48:43;2.20;;;1.10;;
65597;SDS011;52267;51.984;20.956;2023-07-09T11:51:22;2.70;;;1.20;;
65597;SDS011;52267;51.984;20.956;2023-07-09T11:53:54;3.60;;;1.40;;
65597;SDS011;52267;51.984;20.956;2023-07-09T11:56:23;1.90;;;1.00;;
65597;SDS011;52267;51.984;20.956;2023-07-09T11:58:52;1.70;;;0.90;;
65597;SDS011;52267;51.984;20.956;2023-07-09T12:01:34;2.90;;;1.30;;
65597;SDS011;52267;51.984;20.956;2023-07-09T12:04:12;2.50;;;1.10;;
65597;SDS011;52267;51.984;20.956;2023-07-09T12:06:41;3.50;;;1.40;;
65597;SDS011;52267;51.984;20.956;2023-07-09T12:09:18;3.40;;;1.40;;
65597;SDS011;52267;51.984;20.956;2023-07-09T12:11:48;2.10;;;1.00;;
65597;SDS011;52267;51.984;20.956;2023-07-09T12:14:19;2.60;;;1.10;;
65597;SDS011;52267;51.984;20.956;2023-07-09T12:16:50;2.60;;;1.20;;
65597;SDS011;52267;51.984;20.956;2023-07-09T12:19:20;4.10;;;1.30;;
65597;SDS011;52267;51.984;20.956;2023-07-09T12:21:55;2.50;;;1.10;;
65597;SDS011;52267;51.984;20.956;2023-07-09T12:24:26;3.40;;;1.00;;
65597;SDS011;52267;51.984;20.956;2023-07-09T12:27:03;2.30;;;1.10;;
65597;SDS011;52267;51.984;20.956;2023-07-09T12:29:42;2.40;;;1.10;;
65597;SDS011;52267;51.984;20.956;2023-07-09T12:32:13;3.60;;;1.10;;
65597;SDS011;52267;51.984;20.956;2023-07-09T12:34:41;2.10;;;1.10;;
65597;SDS011;52267;51.984;20.956;2023-07-09T12:37:13;2.30;;;1.00;;
65597;SDS011;52267;51.984;20.956;2023-07-09T12:39:42;2.40;;;1.30;;
65597;SDS011;52267;51.984;20.956;2023-07-09T12:42:16;2.90;;;1.10;;
65597;SDS011;52267;51.984;20.956;2023-07-09T12:45:04;1.80;;;1.00;;
65597;SDS011;52267;51.984;20.956;2023-07-09T12:47:32;4.70;;;1.00;;
65597;SDS011;52267;51.984;20.956;2023-07-09T12:50:02;2.60;;;1.10;;
65597;SDS011;52267;51.984;20.956;2023-07-09T12:52:45;1.90;;;1.00;;
65597;SDS011;52267;51.984;20.956;2023-07-09T12:55:21;2.90;;;1.10;;
65597;SDS011;52267;51.984;20.956;2023-07-09T12:57:49;3.60;;;1.00;;
65597;SDS011;52267;51.984;20.956;2023-07-09T13:00:18;2.00;;;1.20;;
65597;SDS011;52267;51.984;20.956;2023-07-09T13:02:53;2.10;;;0.90;;
65597;SDS011;52267;51.984;20.956;2023-07-09T13:05:26;2.30;;;1.00;;
65597;SDS011;52267;51.984;20.956;2023-07-09T13:08:02;2.20;;;1.10;;
65597;SDS011;52267;51.984;20.956;2023-07-09T13:10:31;3.20;;;1.10;;
65597;SDS011;52267;51.984;20.956;2023-07-09T13:13:05;6.10;;;1.40;;
65597;SDS011;52267;51.984;20.956;2023-07-09T13:15:42;1.60;;;0.90;;
65597;SDS011;52267;51.984;20.956;2023-07-09T13:18:12;1.80;;;1.00;;
65597;SDS011;52267;51.984;20.956;2023-07-09T13:20:42;2.30;;;1.10;;
65597;SDS011;52267;51.984;20.956;2023-07-09T13:23:22;3.30;;;1.60;;
65597;SDS011;52267;51.984;20.956;2023-07-09T13:25:51;3.20;;;1.30;;
65597;SDS011;52267;51.984;20.956;2023-07-09T13:31:10;2.40;;;0.90;;
65597;SDS011;52267;51.984;20.956;2023-07-09T13:33:44;2.40;;;1.20;;
65597;SDS011;52267;51.984;20.956;2023-07-09T13:36:12;1.90;;;0.80;;
65597;SDS011;52267;51.984;20.956;2023-07-09T13:38:39;4.80;;;1.30;;
65597;SDS011;52267;51.984;20.956;2023-07-09T13:41:13;1.80;;;1.10;;
65597;SDS011;52267;51.984;20.956;2023-07-09T13:43:45;2.50;;;1.20;;
65597;SDS011;52267;51.984;20.956;2023-07-09T13:46:14;2.10;;;1.00;;
65597;SDS011;52267;51.984;20.956;2023-07-09T13:48:43;2.60;;;1.30;;
65597;SDS011;52267;51.984;20.956;2023-07-09T13:51:21;2.60;;;1.20;;
65597;SDS011;52267;51.984;20.956;2023-07-09T13:53:54;3.20;;;1.20;;
65597;SDS011;52267;51.984;20.956;2023-07-09T13:56:24;2.90;;;1.30;;
65597;SDS011;52267;51.984;20.956;2023-07-09T13:58:51;2.60;;;1.10;;
65597;SDS011;52267;51.984;20.956;2023-07-09T14:01:23;3.40;;;1.30;;
65597;SDS011;52267;51.984;20.956;2023-07-09T14:03:57;3.50;;;1.40;;
65597;SDS011;52267;51.984;20.956;2023-07-09T14:06:27;2.30;;;1.10;;
65597;SDS011;52267;51.984;20.956;2023-07-09T14:08:54;2.10;;;1.20;;
65597;SDS011;52267;51.984;20.956;2023-07-09T14:11:21;2.40;;;1.20;;
65597;SDS011;52267;51.984;20.956;2023-07-09T14:13:48;2.40;;;1.10;;
65597;SDS011;52267;51.984;20.956;2023-07-09T14:16:18;2.40;;;1.10;;
65597;SDS011;52267;51.984;20.956;2023-07-09T14:18:46;2.60;;;1.20;;
65597;SDS011;52267;51.984;20.956;2023-07-09T14:21:17;4.10;;;1.30;;
65597;SDS011;52267;51.984;20.956;2023-07-09T14:23:53;3.40;;;1.30;;
65597;SDS011;52267;51.984;20.956;2023-07-09T14:26:20;2.90;;;1.30;;
65597;SDS011;52267;51.984;20.956;2023-07-09T14:28:50;2.70;;;1.50;;
65597;SDS011;52267;51.984;20.956;2023-07-09T14:31:22;3.50;;;1.60;;
65597;SDS011;52267;51.984;20.956;2023-07-09T14:33:51;2.90;;;1.40;;
65597;SDS011;52267;51.984;20.956;2023-07-09T14:36:19;3.40;;;1.40;;
65597;SDS011;52267;51.984;20.956;2023-07-09T14:38:46;2.20;;;1.30;;
65597;SDS011;52267;51.984;20.956;2023-07-09T14:41:23;2.30;;;1.40;;
65597;SDS011;52267;51.984;20.956;2023-07-09T14:43:58;2.50;;;1.30;;
65597;SDS011;52267;51.984;20.956;2023-07-09T14:46:25;2.90;;;1.40;;
65597;SDS011;52267;51.984;20.956;2023-07-09T14:48:52;2.90;;;1.50;;
65597;SDS011;52267;51.984;20.956;2023-07-09T14:51:19;3.00;;;1.40;;
65597;SDS011;52267;51.984;20.956;2023-07-09T14:53:47;2.70;;;1.50;;
65597;SDS011;52267;51.984;20.956;2023-07-09T14:56:14;3.30;;;1.30;;
65597;SDS011;52267;51.984;20.956;2023-07-09T14:58:41;3.40;;;1.40;;
65597;SDS011;52267;51.984;20.956;2023-07-09T15:01:18;2.30;;;1.20;;
65597;SDS011;52267;51.984;20.956;2023-07-09T15:03:47;3.50;;;1.50;;
65597;SDS011;52267;51.984;20.956;2023-07-09T15:06:14;2.70;;;1.30;;
65597;SDS011;52267;51.984;20.956;2023-07-09T15:08:41;3.00;;;1.40;;
65597;SDS011;52267;51.984;20.956;2023-07-09T15:11:09;3.00;;;1.50;;
65597;SDS011;52267;51.984;20.956;2023-07-09T15:13:37;2.40;;;1.40;;
65597;SDS011;52267;51.984;20.956;2023-07-09T15:16:04;3.90;;;1.20;;
65597;SDS011;52267;51.984;20.956;2023-07-09T15:18:32;2.30;;;1.30;;
65597;SDS011;52267;51.984;20.956;2023-07-09T15:21:03;2.20;;;1.30;;